Kelleys Island, Ohio
Current Conditions -  °F | °C
As of 12:52 PM on Sunday 21 Dec 2014 (Local Time) from KPCW Reporting Station
Few Clouds Few Clouds  
Wind Chill: 32°   Ceiling: Unl
Heat Index: 36°   Visibility: 10mi
Dew Point: 25°   Wind: 5mph
Humidity: 65%   Direction: 160°SSE
Pressure: 30.27"   Gusts: NA
Location:  41.6°N, 82.71°W
Report Text: KPCW 211752Z AUTO 16004KT 10SM FEW024 02/M04 A3027 RMK AO2 58015
Loading
Personal Weather Stations






























Interactive Weather Map New forecast layout! Learn more

10-Day Weather Forecast

Advertisements
Track Severe Weather on mobile